FMMIFMMT

Guest
Details From FMMI - IVATO
To FMMT - TOAMASINA
Flight Number -
Tags generated
Created
Modified
Stats Distance 127 nm / 235 km
Max Altitude 15,500 ft / 4,724 m
Waypoints 4
Social Downloads 0
Likes 0
Share VATSIM

Download

Looking for another format? Having issues loading an existing format? Contact us
Advertisement - Login to hide

Notes

Basic altitude profile: - Ascent Rate: 2000ft/min - Ascent Speed: 150kts - Cruise Altitude: 12000ft - Cruise Speed: 250kts - Descent Rate: 1000ft/min - Descent Speed: 200kts Options: - Use NATs: no - Use PACOTS: no - Use low airways: yes - Use high airways: no

Route

FMMI TNV A401F TE FMMT

ID Type Via Altitude Latitude Longitude Leg Dist Tot Dist Heading (true) Name
O FMMI APT - 0 ft / 0 m -18.79695˚ 47.47881˚ - 0 nm - IVATO
TNV VOR - 800 ft / 244 m -18.80333˚ 47.51867˚ 2 nm 2 nm 100° / 100° IVATO VOR-DME
TE NDB A401F (AWY-LO) 15,500 ft / 4,724 m -18.95342˚ 48.22550˚ 41 nm 43 nm 103° / 103° MORAMANGA NDB
O FMMT APT - 0 ft / 0 m -18.10952˚ 49.39254˚ 83 nm 127 nm 53° / 52° TOAMASINA

Altitude Profile

Advertisement - Login to hide

FMMI

Details ICAO FMMI (TNR)
Name IVATO
Region Comoros, Mayotte, Réunion and Madagascar
Timezone Indian/Antananarivo (UTC+3.0)
Stats Elevation 4,198 ft / 1,280 m (AMSL)
Location -18.796950° 47.478806°
Runways 1
Magnetic Variation 15.161° W

METAR

FMMI 152000Z 10007KT 9999 FEW017CB SCT023 19/18 Q1022 NOSIG

Decode

TAF

TAF TAF FMMI 141100Z 1412/1518 08008KT 9999 SCT017 SCT020 PROB30 TEMPO 1414/1501 4000 TSRA FEW010 BKN015CB PROB40 TEMPO 1510/1518 4000 TSRA FEW010 BKN015CB

Decode

Departure Runways

ID Width Length Bearing (true) Bearing (mag) Surface Threshold Offset Overrun Length
11 148 ft / 45 m 10,167 ft / 3,099 m 98.92° 114.08° Asphalt 0 ft / 0 m 90 ft / 27 m
29 148 ft / 45 m 10,167 ft / 3,099 m 278.91° 294.07° Asphalt 0 ft / 0 m 90 ft / 27 m

FMMT

Details ICAO FMMT (TMM)
Name TOAMASINA
Region Comoros, Mayotte, Réunion and Madagascar
Timezone Indian/Antananarivo (UTC+3.0)
Stats Elevation 22 ft / 7 m (AMSL)
Location -18.109517° 49.392536°
Runways 1
Magnetic Variation 14.779° W

METAR

FMMT 152000Z 28004KT 9999 TS SCT017CB SCT033 27/25 Q1015

Decode

TAF

TAF FMMT 141100Z 1412/1512 18008KT 9999 SCT017 BKN033 PROB40 TEMPO 1415/1506 4000 TSRA FEW010 BKN015CB

Decode

Destination Runways

ID Width Length Bearing (true) Bearing (mag) Surface Threshold Offset Overrun Length
01 131 ft / 40 m 7,270 ft / 2,216 m 353.90° 8.68° Asphalt 0 ft / 0 m 100 ft / 30 m
19 131 ft / 40 m 7,270 ft / 2,216 m 173.90° 188.68° Asphalt 0 ft / 0 m 197 ft / 60 m

Approach Navaids

Runway Type Ident Frequency Range Bearing (true) Bearing (mag) Slope Elevation
19 Localiser TO 110.30 MHz 18 nm / 33 km 173.77° 188.55° - 22 ft / 7 m (AMSL)
19 Glidescope TO 110.30 MHz 10 nm / 19 km 173.90° 188.68° 3.00° 22 ft / 7 m (AMSL)

Popular Alternatives